Alto, TX

1:26 PM CDT on September 30, 2014 (GMT -0500)
RAWS RATCLIFF TX US | Change Station
CLOSE
Current Station
Personal Weather Station
Location: Ratcliff, TX
Elevation: 434 ft
Nearby Weather Stations

Elev 434 ft 31.40 °N, 95.14 °W | Updated 24 minutes ago

Partly Cloudy
Partly Cloudy
89 °F
Feels Like 94 °F
N
1
Wind Variable Wind from SSE
Gusts 7.0 mph

Today
High -- | Low -- °F
--% Chance of Precip.
Yesterday
High -- | Low -- °F
Precip. -- in
7:13 AM 7:06 PM
Waxing Crescent, 39% visible
Pressure 29.90 in
Visibility 10.0 miles
Clouds Scattered Clouds 3200 ft
Scattered Clouds 6000 ft
Mostly Cloudy 12000 ft
Heat Index 94 °F
Dew Point 70 °F
Humidity 54%
Rainfall 0.00 in
Snow Depth Not available.
UV 5 out of 12
Pollen 8.50 out of 12
Ozone Good
PM2.5 Moderate
Flu Activity Not available.
METAR KJSO 301815Z AUTO 15006KT 10SM SCT032 SCT060 BKN120 29/20 A2990 RMK AO2 T02960204

More Conditions Fewer Conditions

Pressure 29.90 in
Visibility 10.0 miles
Clouds Scattered Clouds 3200 ft
Scattered Clouds 6000 ft
Mostly Cloudy 12000 ft
Heat Index 94 °F
Dew Point 70 °F
Humidity 54%
Rainfall 0.00 in
Snow Depth Not available.
UV 5 out of 12
Pollen 8.50 out of 12
Ozone Good
PM2.5 Moderate
Flu Activity Not available.
METAR KJSO 301815Z AUTO 15006KT 10SM SCT032 SCT060 BKN120 29/20 A2990 RMK AO2 T02960204

More Conditions Fewer Conditions

10-Day Weather Forecast

Almanac

Astronomy

Sep. 30, 2014 Rise Set
Actual Time 7:13 AM CDT 7:06 PM CDT
Civil Twilight 6:49 AM CDT 7:30 PM CDT
Nautical Twilight 6:21 AM CDT 7:58 PM CDT
Astronomical Twilight 5:52 AM CDT 8:27 PM CDT
Moon 1:06 PM CDT 11:53 PM CDT
Length of Visible Light 12h 41m
Length of Day
11h 52m
Tomorrow will be 1m 55s shorter.
Waxing Crescent, 39% of the Moon is Illuminated
Today
Waxing Crescent
Oct 1
First Quarter
Oct 8
Full
Oct 15
Last Quarter
Oct 23
New

Today's Extremes

State Highs State Lows

Community

WunderPhotos

Upload Photos

1,757,711 photos uploaded!

Nearby

Air Quality

  Air Quality AQ Index Pollutant
Yesterday Good
PM2.5
Yesterday Good
OZONE
Current Moderate
PM2.5
Current Good
OZONE
Tuesday Good
OZONE
Tuesday Good
PM10
Wednesday Good
OZONE
Wednesday Good
PM10
Thursday Good
OZONE
Thursday Good
PM10
Friday Good
OZONE
Friday Good
PM10

Snow Depth

Station Depth Elevation
No new snow has been reported.

Earthquake Activity

City Distance Mag. Time & Date
No recent earthquake activity has been reported nearby.
Minimum magnitude displayed is 2.5.

Coastal Water Temperatures

Place Temperature
No Stations Reporting

Nearby Weather Stations